Time;durP1;ratioP1;P1;durP2;ratioP2;P2;SDS_P1;SDS_P2;PMS_P1;PMS_P2;Temp;Humidity;BMP_temperature;BMP_pressure;BME280_temperature;BME280_humidity;BME280_pressure;Samples;Min_cycle;Max_cycle;Signal;HPM_P1;HPM_P2
2023/12/29 00:00:26;;;;;;;7.55;2.65;;;;;;;12.09;100.00;100726.44;5285277;28;20470;-80
2023/12/29 00:02:58;;;;;;;6.10;1.67;;;;;;;12.10;100.00;100724.66;5283824;28;20062;-81
2023/12/29 00:05:30;;;;;;;9.10;2.20;;;;;;;12.12;100.00;100735.81;5283898;28;20112;-81
2023/12/29 00:08:02;;;;;;;9.02;2.10;;;;;;;12.11;100.00;100718.41;5283493;28;20042;-81
2023/12/29 00:10:34;;;;;;;6.90;2.20;;;;;;;12.18;100.00;100730.00;5283636;28;20321;-80
2023/12/29 00:13:06;;;;;;;9.40;1.90;;;;;;;12.21;100.00;100719.22;5285104;28;20040;-79
2023/12/29 00:15:38;;;;;;;5.85;2.00;;;;;;;12.15;100.00;100704.03;5281645;28;20039;-81
2023/12/29 00:18:10;;;;;;;8.65;2.67;;;;;;;12.11;100.00;100711.38;5281213;28;20472;-81
2023/12/29 00:20:41;;;;;;;6.15;1.67;;;;;;;12.11;100.00;100724.50;5282790;28;20425;-81
2023/12/29 00:23:14;;;;;;;10.18;2.15;;;;;;;12.09;100.00;100700.19;5285387;28;20069;-81
2023/12/29 00:25:46;;;;;;;7.85;1.50;;;;;;;12.06;100.00;100704.91;5281927;28;20043;-80
2023/12/29 00:28:18;;;;;;;7.97;1.77;;;;;;;12.08;100.00;100723.94;5282665;28;20409;-81
2023/12/29 00:30:50;;;;;;;6.68;1.88;;;;;;;12.09;100.00;100720.38;5280632;28;20057;-80
2023/12/29 00:33:22;;;;;;;8.10;1.90;;;;;;;12.01;100.00;100712.34;5283434;28;20028;-81
2023/12/29 00:35:54;;;;;;;6.35;1.70;;;;;;;12.00;100.00;100718.59;5283428;28;20040;-81
2023/12/29 00:38:27;;;;;;;7.75;2.00;;;;;;;12.05;100.00;100709.31;5294761;28;20034;-82
2023/12/29 00:40:59;;;;;;;11.13;2.13;;;;;;;11.96;100.00;100701.47;5292015;28;20032;-80
2023/12/29 00:43:31;;;;;;;6.65;1.88;;;;;;;11.97;100.00;100705.75;5292213;28;20041;-81
2023/12/29 00:46:06;;;;;;;11.00;2.65;;;;;;;11.95;100.00;100703.25;5285425;28;20024;-79
2023/12/29 00:48:38;;;;;;;11.57;2.33;;;;;;;11.88;100.00;100691.69;5289074;28;20040;-82
2023/12/29 00:51:10;;;;;;;8.13;1.88;;;;;;;11.84;100.00;100700.81;5289328;28;20024;-81
2023/12/29 00:53:42;;;;;;;7.38;2.80;;;;;;;11.84;100.00;100700.81;5288734;28;20481;-82
2023/12/29 00:56:14;;;;;;;12.43;2.63;;;;;;;11.65;100.00;100688.53;5288577;28;20036;-79
2023/12/29 00:58:45;;;;;;;8.65;2.17;;;;;;;11.68;100.00;100706.63;5289420;28;20058;-81
2023/12/29 01:01:17;;;;;;;16.67;3.08;;;;;;;11.57;100.00;100685.78;5285490;28;20378;-81
2023/12/29 01:03:49;;;;;;;8.60;1.95;;;;;;;11.47;100.00;100705.94;5288016;28;20034;-80
2023/12/29 01:06:23;;;;;;;8.05;1.70;;;;;;;11.49;100.00;100694.34;5290452;28;20480;-81
2023/12/29 01:08:54;;;;;;;;;;;;;;;11.88;100.00;100691.69;5287401;28;20031;-80
2023/12/29 01:11:26;;;;;;;10.85;2.63;;;;;;;11.39;100.00;100688.28;5287811;28;20488;-80
2023/12/29 01:13:58;;;;;;;8.82;2.30;;;;;;;11.27;100.00;100705.94;5288688;28;20036;-79
2023/12/29 01:16:30;;;;;;;7.93;2.00;;;;;;;11.31;100.00;100696.84;5288735;28;20312;-82
2023/12/29 01:19:02;;;;;;;10.13;2.40;;;;;;;11.11;100.00;100693.38;5284328;28;20193;-82
2023/12/29 01:21:37;;;;;;;7.28;1.77;;;;;;;11.16;100.00;100690.34;5287275;28;20033;-82
2023/12/29 01:24:09;;;;;;;8.50;2.05;;;;;;;11.04;100.00;100702.75;5286992;28;20397;-81
2023/12/29 01:26:41;;;;;;;6.18;1.90;;;;;;;11.10;100.00;100702.22;5284948;28;20036;-80
2023/12/29 01:29:13;;;;;;;10.57;2.38;;;;;;;10.82;100.00;100695.13;5279233;28;20024;-81
2023/12/29 01:31:45;;;;;;;8.60;2.70;;;;;;;10.91;100.00;100695.16;5280073;28;20036;-80
2023/12/29 01:34:17;;;;;;;8.93;1.80;;;;;;;10.80;100.00;100678.75;5277179;28;20478;-81
2023/12/29 01:36:49;;;;;;;7.72;2.13;;;;;;;10.86;100.00;100694.72;5279550;28;20046;-81
2023/12/29 01:39:21;;;;;;;10.55;2.45;;;;;;;10.81;100.00;100681.22;5279054;28;20028;-81
2023/12/29 01:41:55;;;;;;;8.40;2.45;;;;;;;10.75;100.00;100675.69;5281501;28;20451;-81
2023/12/29 01:44:27;;;;;;;10.73;2.40;;;;;;;10.69;100.00;100677.06;5270889;28;20078;-81
2023/12/29 01:47:00;;;;;;;11.23;2.50;;;;;;;10.70;100.00;100670.84;5278872;28;20032;-81
2023/12/29 01:49:33;;;;;;;11.13;2.42;;;;;;;10.70;100.00;100673.47;5266121;28;20367;-80
2023/12/29 01:52:06;;;;;;;11.68;2.30;;;;;;;10.75;100.00;100681.75;5284394;28;20511;-80
2023/12/29 01:54:40;;;;;;;9.93;2.65;;;;;;;10.80;100.00;100670.88;5281582;28;20520;-80
2023/12/29 01:57:12;;;;;;;10.20;2.10;;;;;;;10.70;100.00;100666.44;5281817;28;20047;-80
2023/12/29 01:59:45;;;;;;;11.15;2.58;;;;;;;10.75;100.00;100683.53;5284815;28;20043;-81
2023/12/29 02:02:17;;;;;;;8.50;2.42;;;;;;;10.78;100.00;100678.84;5285455;28;20091;-81
2023/12/29 02:04:49;;;;;;;10.00;1.97;;;;;;;10.87;100.00;100675.44;5282815;28;20521;-81
2023/12/29 02:07:21;;;;;;;11.93;2.58;;;;;;;10.81;100.00;100669.91;5290182;28;20036;-80
2023/12/29 02:09:53;;;;;;;9.70;1.88;;;;;;;10.87;100.00;100679.81;5282535;28;20623;-80
2023/12/29 02:12:25;;;;;;;7.72;2.10;;;;;;;10.88;100.00;100681.50;5282445;28;20512;-81
2023/12/29 02:14:57;;;;;;;9.52;1.98;;;;;;;10.92;100.00;100686.34;5282463;28;20036;-80
2023/12/29 02:17:45;;;;;;;10.60;2.47;;;;;;;11.07;100.00;100686.75;5280145;28;20040;-80
2023/12/29 02:20:17;;;;;;;8.48;2.30;;;;;;;11.01;100.00;100689.91;5282441;28;20039;-80
2023/12/29 02:22:49;;;;;;;9.82;2.47;;;;;;;11.06;100.00;100681.63;5283190;28;20033;-80
2023/12/29 02:25:21;;;;;;;11.70;3.50;;;;;;;11.01;100.00;100687.28;5281203;28;20038;-81
2023/12/29 02:28:04;;;;;;;7.72;1.33;;;;;;;11.23;100.00;100685.38;5283176;28;20404;-82
2023/12/29 02:30:56;;;;;;;7.53;2.10;;;;;;;11.15;100.00;100675.59;5281403;28;20037;-80
2023/12/29 02:33:31;;;;;;;8.95;1.88;;;;;;;11.13;100.00;100677.50;5271006;28;20048;-83
2023/12/29 02:36:05;;;;;;;12.85;2.28;;;;;;;11.12;100.00;100670.63;5284478;28;20032;-81
2023/12/29 02:38:37;;;;;;;11.15;2.47;;;;;;;11.15;100.00;100660.69;5282027;28;20043;-80
2023/12/29 02:41:11;;;;;;;10.98;2.30;;;;;;;11.19;100.00;100675.16;5283787;28;20485;-80
2023/12/29 02:43:42;;;;;;;9.88;2.55;;;;;;;11.22;100.00;100668.81;5281769;28;20033;-81
2023/12/29 02:46:15;;;;;;;9.88;1.85;;;;;;;11.29;100.00;100680.41;5279987;28;20021;-80
2023/12/29 02:48:47;;;;;;;7.63;2.15;;;;;;;11.29;100.00;100672.56;5281264;28;20035;-80
2023/12/29 02:51:19;;;;;;;10.75;2.25;;;;;;;11.31;100.00;100675.84;5280161;28;20495;-80
2023/12/29 02:53:52;;;;;;;7.38;2.13;;;;;;;11.31;100.00;100678.47;5278565;28;20065;-80
2023/12/29 02:56:24;;;;;;;11.30;2.42;;;;;;;11.37;100.00;100683.19;5280857;28;20556;-80
2023/12/29 02:58:56;;;;;;;9.95;1.88;;;;;;;11.31;100.00;100675.03;5281554;28;20048;-82
2023/12/29 03:01:28;;;;;;;8.90;2.08;;;;;;;11.34;100.00;100672.97;5280944;28;20038;-80
2023/12/29 03:04:01;;;;;;;7.18;1.90;;;;;;;11.34;100.00;100678.19;5280820;28;20039;-79
2023/12/29 03:06:33;;;;;;;8.63;2.20;;;;;;;11.44;100.00;100665.91;5281300;28;20478;-82
2023/12/29 03:09:04;;;;;;;8.43;2.25;;;;;;;11.38;100.00;100671.72;5270891;28;20043;-81
2023/12/29 03:11:36;;;;;;;8.40;1.95;;;;;;;11.41;100.00;100673.22;5278596;28;20284;-82
2023/12/29 03:14:08;;;;;;;8.50;2.20;;;;;;;11.36;100.00;100667.56;5279742;28;20028;-79
2023/12/29 03:16:40;;;;;;;8.88;2.20;;;;;;;11.42;100.00;100659.16;5278421;28;20555;-80
2023/12/29 03:19:12;;;;;;;10.57;2.38;;;;;;;11.46;100.00;100676.25;5277212;28;20043;-80
2023/12/29 03:21:44;;;;;;;9.18;2.10;;;;;;;11.42;100.00;100675.72;5281296;28;20703;-79
2023/12/29 03:24:16;;;;;;;9.30;1.85;;;;;;;11.40;100.00;100679.41;5277633;28;20028;-79
2023/12/29 03:26:48;;;;;;;10.77;2.25;;;;;;;11.41;100.00;100665.38;5272097;28;20033;-80
2023/12/29 03:29:20;;;;;;;10.35;2.55;;;;;;;11.39;100.00;100668.09;5275878;28;20071;-79
2023/12/29 03:31:52;;;;;;;11.73;2.30;;;;;;;11.45;100.00;100667.56;5277841;28;20035;-80
2023/12/29 03:34:24;;;;;;;9.65;2.10;;;;;;;11.51;100.00;100671.41;5282927;28;20028;-79
2023/12/29 03:36:56;;;;;;;6.70;1.90;;;;;;;11.53;100.00;100668.66;5279969;28;20024;-80
2023/12/29 03:39:28;;;;;;;10.85;2.35;;;;;;;11.50;100.00;100668.94;5277447;28;20035;-79
2023/12/29 03:41:59;;;;;;;11.25;2.88;;;;;;;11.55;100.00;100677.19;5278268;28;20033;-80
2023/12/29 03:44:31;;;;;;;9.10;2.08;;;;;;;11.50;100.00;100661.06;5279627;28;20047;-80
2023/12/29 03:47:03;;;;;;;5.38;1.60;;;;;;;11.62;100.00;100657.31;5281187;28;20024;-79
2023/12/29 03:49:35;;;;;;;11.73;2.15;;;;;;;11.62;100.00;100665.19;5278688;28;20390;-79
2023/12/29 03:52:07;;;;;;;11.93;3.05;;;;;;;11.58;100.00;100655.94;5279270;28;20031;-79
2023/12/29 03:54:39;;;;;;;10.52;2.50;;;;;;;11.54;100.00;100657.19;5276903;28;20048;-80
2023/12/29 03:57:11;;;;;;;8.55;2.13;;;;;;;11.57;100.00;100662.97;5278564;28;20032;-80
2023/12/29 03:59:43;;;;;;;6.63;2.08;;;;;;;11.64;100.00;100674.56;5278491;28;20045;-79
2023/12/29 04:02:17;;;;;;;9.73;2.33;;;;;;;11.57;100.00;100657.75;5282360;28;20024;-81
2023/12/29 04:04:49;;;;;;;7.78;2.30;;;;;;;11.58;100.00;100656.75;5279598;28;20470;-79
2023/12/29 04:07:21;;;;;;;8.93;1.67;;;;;;;11.63;100.00;100661.56;5279350;28;20028;-79
2023/12/29 04:09:53;;;;;;;9.57;2.33;;;;;;;11.59;100.00;100649.72;5280473;28;20032;-79
2023/12/29 04:12:25;;;;;;;9.18;2.63;;;;;;;11.62;100.00;100658.13;5277290;28;21054;-79
2023/12/29 04:14:56;;;;;;;8.85;2.35;;;;;;;11.60;100.00;100665.34;5278851;28;20474;-80
2023/12/29 04:17:29;;;;;;;9.15;2.40;;;;;;;11.63;100.00;100669.44;5278865;28;20036;-79
2023/12/29 04:20:01;;;;;;;8.40;1.60;;;;;;;11.60;100.00;100662.72;5282799;28;20032;-82
2023/12/29 04:22:34;;;;;;;7.30;1.95;;;;;;;11.52;100.00;100659.97;5271372;28;20064;-81
2023/12/29 04:25:06;;;;;;;11.20;2.30;;;;;;;11.55;100.00;100666.72;5278846;28;20438;-81
2023/12/29 04:27:39;;;;;;;10.05;2.40;;;;;;;11.55;100.00;100658.84;5279433;28;20434;-79
2023/12/29 04:30:11;;;;;;;19.45;2.70;;;;;;;11.50;100.00;100650.56;5277132;28;20032;-79
2023/12/29 04:32:43;;;;;;;10.27;2.65;;;;;;;11.48;100.00;100636.75;5278980;28;20033;-81
2023/12/29 04:35:15;;;;;;;7.97;1.73;;;;;;;11.53;100.00;100651.13;5281507;28;20188;-81
2023/12/29 04:37:47;;;;;;;12.45;2.50;;;;;;;11.42;100.00;100665.22;5279331;28;20437;-79
2023/12/29 04:40:19;;;;;;;8.10;2.20;;;;;;;11.41;100.00;100652.25;5277195;28;20504;-79
2023/12/29 04:42:51;;;;;;;7.93;2.40;;;;;;;11.44;100.00;100660.66;5270795;28;20044;-80
2023/12/29 04:45:23;;;;;;;9.13;2.33;;;;;;;11.42;100.00;100644.22;5278914;28;20025;-82
2023/12/29 04:47:55;;;;;;;11.02;2.22;;;;;;;11.50;100.00;100659.25;5276778;28;20040;-79
2023/12/29 04:50:27;;;;;;;9.18;2.00;;;;;;;11.39;100.00;100644.50;5279779;28;20680;-79
2023/12/29 04:52:58;;;;;;;8.10;2.17;;;;;;;11.44;100.00;100647.56;5278997;28;20034;-79
2023/12/29 04:55:30;;;;;;;9.27;2.45;;;;;;;11.45;100.00;100651.81;5278894;28;20064;-79
2023/12/29 04:58:02;;;;;;;10.30;2.60;;;;;;;11.43;100.00;100652.91;5281555;28;20033;-80
2023/12/29 05:00:34;;;;;;;8.85;2.45;;;;;;;11.42;100.00;100653.91;5278907;28;20036;-79
2023/12/29 05:03:06;;;;;;;9.27;2.22;;;;;;;11.40;100.00;100654.03;5278024;28;20043;-79
2023/12/29 05:05:38;;;;;;;9.95;2.53;;;;;;;11.35;100.00;100679.84;5278787;28;20040;-79
2023/12/29 05:08:11;;;;;;;8.23;2.40;;;;;;;11.34;100.00;100664.25;5278294;28;20081;-80
2023/12/29 05:10:42;;;;;;;14.68;3.08;;;;;;;11.36;100.00;100659.69;5277552;28;20032;-79
2023/12/29 05:13:14;;;;;;;13.13;2.90;;;;;;;11.32;100.00;100646.03;5274409;28;20035;-82
2023/12/29 05:15:46;;;;;;;10.27;2.20;;;;;;;11.33;100.00;100660.81;5277810;28;20040;-80
2023/12/29 05:18:18;;;;;;;9.60;2.10;;;;;;;11.27;100.00;100655.28;5278193;28;20029;-80
2023/12/29 05:20:50;;;;;;;6.10;2.00;;;;;;;11.35;100.00;100656.25;5277898;28;20036;-80
2023/12/29 05:23:22;;;;;;;10.18;2.42;;;;;;;11.36;100.00;100657.06;5276696;28;20050;-79
2023/12/29 05:25:54;;;;;;;12.05;2.60;;;;;;;11.25;100.00;100655.44;5280536;28;20029;-83
2023/12/29 05:28:26;;;;;;;13.93;2.15;;;;;;;11.30;100.00;100662.88;5278279;28;20027;-80
2023/12/29 05:31:03;;;;;;;7.18;1.75;;;;;;;11.27;100.00;100663.16;5279310;28;20047;-80
2023/12/29 05:33:35;;;;;;;9.80;2.40;;;;;;;11.20;100.00;100647.16;5278640;28;20020;-80
2023/12/29 05:36:09;;;;;;;8.93;2.25;;;;;;;11.38;100.00;100645.47;5276451;28;20406;-80
2023/12/29 05:38:45;;;;;;;12.77;3.10;;;;;;;11.32;100.00;100638.16;5278762;28;20036;-80
2023/12/29 05:41:19;;;;;;;11.50;2.80;;;;;;;11.26;100.00;100640.53;5277788;28;20020;-81
2023/12/29 05:43:50;;;;;;;10.27;2.13;;;;;;;11.20;100.00;100637.47;5278237;28;20044;-82
2023/12/29 05:46:22;;;;;;;13.80;3.47;;;;;;;11.18;100.00;100644.69;5277997;28;20036;-80
2023/12/29 05:48:54;;;;;;;10.40;2.63;;;;;;;11.19;100.00;100630.59;5273669;28;20037;-79
2023/12/29 05:51:26;;;;;;;8.68;2.35;;;;;;;11.15;100.00;100625.78;5276342;28;20039;-79
2023/12/29 05:53:58;;;;;;;10.00;2.38;;;;;;;11.22;100.00;100657.50;5277312;28;20055;-80
2023/12/29 05:56:30;;;;;;;7.25;2.08;;;;;;;11.18;100.00;100646.47;5279006;28;20044;-80
2023/12/29 05:59:02;;;;;;;7.80;2.17;;;;;;;11.18;100.00;100654.34;5278452;28;20480;-80
2023/12/29 06:01:34;;;;;;;10.07;2.47;;;;;;;11.13;100.00;100635.56;5278352;28;20040;-80
2023/12/29 06:04:06;;;;;;;8.85;2.40;;;;;;;11.11;100.00;100634.88;5277507;28;20472;-82
2023/12/29 06:06:38;;;;;;;9.70;1.90;;;;;;;11.04;100.00;100623.28;5276135;28;20040;-80
2023/12/29 06:09:10;;;;;;;10.80;2.10;;;;;;;11.02;100.00;100631.28;5279523;28;20051;-80
2023/12/29 06:11:42;;;;;;;9.07;2.08;;;;;;;11.06;100.00;100635.31;5278340;28;20370;-80
2023/12/29 06:14:14;;;;;;;7.45;2.35;;;;;;;11.03;100.00;100640.00;5278371;28;20040;-80
2023/12/29 06:16:46;;;;;;;5.80;2.00;;;;;;;11.03;100.00;100647.84;5279480;28;20239;-84
2023/12/29 06:19:18;;;;;;;7.20;2.00;;;;;;;11.03;100.00;100634.75;5279663;28;20028;-80
2023/12/29 06:21:50;;;;;;;7.90;2.30;;;;;;;11.03;100.00;100619.03;5279254;28;20040;-80
2023/12/29 06:24:22;;;;;;;9.90;2.63;;;;;;;11.04;100.00;100623.28;5278312;28;20024;-80
2023/12/29 06:26:54;;;;;;;9.88;2.28;;;;;;;11.00;100.00;100641.09;5280968;28;20371;-80
2023/12/29 06:29:26;;;;;;;6.55;1.80;;;;;;;11.13;100.00;100625.06;5279855;28;20761;-83
2023/12/29 06:31:58;;;;;;;9.65;2.20;;;;;;;11.07;100.00;100636.13;5279324;28;20036;-80
2023/12/29 06:34:30;;;;;;;9.45;2.30;;;;;;;11.04;100.00;100633.78;5279500;28;20024;-79
2023/12/29 06:37:02;;;;;;;10.35;2.50;;;;;;;11.03;100.00;100638.19;5283488;28;20040;-79
2023/12/29 06:39:35;;;;;;;9.18;2.30;;;;;;;11.16;100.00;100643.97;5285942;28;20051;-81
2023/12/29 06:42:07;;;;;;;;;;;;;;;11.57;100.00;100641.16;5283124;28;20625;-83
2023/12/29 06:44:39;;;;;;;7.82;1.95;;;;;;;11.21;100.00;100640.94;5282293;28;19923;-84
2023/12/29 06:47:11;;;;;;;8.82;2.22;;;;;;;11.15;100.00;100647.56;5284402;28;20090;-80
2023/12/29 06:49:43;;;;;;;8.00;1.90;;;;;;;11.19;100.00;100637.63;5283955;28;20414;-79
2023/12/29 06:52:15;;;;;;;8.88;2.25;;;;;;;11.13;100.00;100628.50;5272401;28;20074;-80
2023/12/29 06:54:47;;;;;;;6.65;2.00;;;;;;;11.14;100.00;100639.84;5284018;28;20063;-79
2023/12/29 06:57:19;;;;;;;8.27;2.08;;;;;;;11.09;100.00;100628.94;5281308;28;20020;-80
2023/12/29 06:59:50;;;;;;;6.25;2.28;;;;;;;11.10;100.00;100622.72;5286468;28;20032;-80
2023/12/29 07:02:22;;;;;;;6.97;1.70;;;;;;;11.13;100.00;100627.69;5274744;28;20046;-81
2023/12/29 07:04:54;;;;;;;11.93;2.38;;;;;;;11.05;100.00;100606.59;5283645;28;20025;-80
2023/12/29 07:07:26;;;;;;;8.45;2.40;;;;;;;11.12;100.00;100618.19;5274232;28;20041;-79
2023/12/29 07:09:58;;;;;;;7.45;1.90;;;;;;;11.11;100.00;100598.19;5279639;28;20090;-80
2023/12/29 07:12:30;;;;;;;10.50;2.88;;;;;;;11.14;100.00;100619.69;5280040;28;20048;-79
2023/12/29 07:15:02;;;;;;;8.88;2.03;;;;;;;11.05;100.00;100606.59;5284771;28;20042;-81
2023/12/29 07:17:34;;;;;;;6.03;2.03;;;;;;;11.07;100.00;100613.34;5282398;28;20041;-81
2023/12/29 07:20:07;;;;;;;7.32;2.10;;;;;;;11.04;100.00;100612.81;5282578;28;20023;-80
2023/12/29 07:22:39;;;;;;;9.32;2.15;;;;;;;11.01;100.00;100611.28;5282864;28;20409;-82
2023/12/29 07:25:12;;;;;;;7.15;2.20;;;;;;;10.97;100.00;100617.75;5279118;28;20028;-79
2023/12/29 07:27:44;;;;;;;8.52;2.08;;;;;;;10.93;100.00;100606.72;5279401;28;20016;-82
2023/12/29 07:30:16;;;;;;;8.32;1.63;;;;;;;11.06;100.00;100605.59;5282053;28;20058;-81
2023/12/29 07:32:48;;;;;;;7.72;2.05;;;;;;;11.07;100.00;100613.34;5282498;28;20048;-79
2023/12/29 07:35:20;;;;;;;7.00;1.95;;;;;;;11.06;100.00;100590.75;5280851;28;20036;-81
2023/12/29 07:37:52;;;;;;;6.65;1.58;;;;;;;11.05;100.00;100599.53;5279208;28;20573;-82
2023/12/29 07:40:24;;;;;;;6.40;1.80;;;;;;;11.13;100.00;100601.47;5279271;28;20036;-81
2023/12/29 07:42:56;;;;;;;7.53;1.52;;;;;;;11.08;100.00;100606.31;5281694;28;20474;-83
2023/12/29 07:45:28;;;;;;;5.63;1.30;;;;;;;11.12;100.00;100584.91;5281840;28;20032;-81
2023/12/29 07:48:02;;;;;;;8.40;1.83;;;;;;;11.16;100.00;100591.53;5282315;28;20040;-79
2023/12/29 07:50:34;;;;;;;6.57;1.85;;;;;;;11.24;100.00;100608.38;5279541;28;20039;-80
2023/12/29 07:53:06;;;;;;;4.53;1.35;;;;;;;11.22;100.00;100636.53;5283377;28;20025;-81
2023/12/29 07:55:39;;;;;;;5.70;1.70;;;;;;;11.30;100.00;100637.50;5281462;28;20056;-80
2023/12/29 07:58:11;;;;;;;6.13;1.70;;;;;;;11.31;100.00;100644.38;5278971;28;20032;-80
2023/12/29 08:00:43;;;;;;;6.63;1.85;;;;;;;11.27;100.00;100642.19;5279072;28;20028;-81
2023/12/29 08:03:16;;;;;;;6.22;1.70;;;;;;;11.29;100.00;100645.47;5283155;28;20024;-80
2023/12/29 08:05:47;;;;;;;8.30;1.40;;;;;;;11.39;100.00;100649.75;5280580;28;20057;-82
2023/12/29 08:08:19;;;;;;;6.38;1.58;;;;;;;11.30;100.00;100644.53;5273035;28;20093;-80
2023/12/29 08:10:51;;;;;;;8.25;1.27;;;;;;;11.33;100.00;100637.22;5295635;28;20031;-81
2023/12/29 08:13:24;;;;;;;5.78;1.27;;;;;;;11.30;100.00;100616.50;5290240;28;20024;-81
2023/12/29 08:15:55;;;;;;;4.05;1.23;;;;;;;11.36;100.00;100630.84;5290986;28;20809;-81
2023/12/29 08:18:27;;;;;;;5.65;1.58;;;;;;;11.33;100.00;100639.84;5291505;28;20036;-81
2023/12/29 08:20:59;;;;;;;3.67;1.00;;;;;;;11.22;100.00;100626.88;5296691;28;20246;-80
2023/12/29 08:23:31;;;;;;;4.82;0.95;;;;;;;11.32;100.00;100632.09;5293595;28;20102;-80
2023/12/29 08:26:03;;;;;;;5.03;1.50;;;;;;;11.36;100.00;100633.47;5290636;28;20024;-81
2023/12/29 08:28:35;;;;;;;4.47;1.10;;;;;;;11.33;100.00;100633.75;5292736;28;20119;-81
2023/12/29 08:31:08;;;;;;;3.65;1.08;;;;;;;11.31;100.00;100641.75;5294480;28;20263;-81
2023/12/29 08:33:39;;;;;;;3.53;1.20;;;;;;;11.45;100.00;100648.38;5293387;28;20044;-81
2023/12/29 08:36:12;;;;;;;3.80;0.98;;;;;;;11.31;100.00;100639.13;5290348;28;20542;-81
2023/12/29 08:38:44;;;;;;;4.60;1.17;;;;;;;11.41;100.00;100650.44;5289374;28;20036;-81
2023/12/29 08:41:16;;;;;;;6.10;1.50;;;;;;;11.39;100.00;100660.25;5282480;28;20134;-81
2023/12/29 08:43:48;;;;;;;3.78;1.20;;;;;;;11.39;100.00;100656.78;5292734;28;20028;-81
2023/12/29 08:46:20;;;;;;;3.75;1.10;;;;;;;11.40;100.00;100674.19;5292238;28;20020;-81
2023/12/29 08:48:51;;;;;;;5.18;1.15;;;;;;;11.31;100.00;100652.25;5291434;28;20038;-81
2023/12/29 08:51:23;;;;;;;5.03;1.30;;;;;;;11.38;100.00;100665.63;5289750;28;20035;-80
2023/12/29 08:53:55;;;;;;;3.47;0.95;;;;;;;11.32;100.00;100680.13;5290902;28;20028;-80
2023/12/29 08:56:29;;;;;;;3.80;1.05;;;;;;;11.32;100.00;100677.50;5290034;28;20044;-81
2023/12/29 08:59:00;;;;;;;;;;;;;;;11.75;100.00;100670.97;5289721;28;20032;-81
2023/12/29 09:01:33;;;;;;;4.20;1.40;;;;;;;11.33;100.00;100675.72;5291738;28;20273;-81
2023/12/29 09:04:05;;;;;;;3.92;1.33;;;;;;;11.33;100.00;100673.94;5289139;28;20369;-81
2023/12/29 09:06:37;;;;;;;5.20;0.90;;;;;;;11.30;100.00;100665.50;5289287;28;20052;-81
2023/12/29 09:09:12;;;;;;;3.58;0.88;;;;;;;11.18;100.00;100667.44;5287197;28;20070;-81
2023/12/29 09:11:45;;;;;;;3.63;1.05;;;;;;;11.19;100.00;100667.31;5282137;28;20036;-81
2023/12/29 09:14:17;;;;;;;6.18;1.25;;;;;;;11.17;100.00;100671.00;5286334;28;20038;-81
2023/12/29 09:16:50;;;;;;;3.47;0.98;;;;;;;11.04;100.00;100660.00;5287598;28;20024;-82
2023/12/29 09:19:22;;;;;;;3.25;0.90;;;;;;;11.11;100.00;100671.59;5290416;28;20036;-82
2023/12/29 09:21:54;;;;;;;3.42;0.80;;;;;;;11.14;100.00;100679.19;5289605;28;20034;-82
2023/12/29 09:24:26;;;;;;;3.75;0.90;;;;;;;11.07;100.00;100671.03;5279800;28;20332;-82
2023/12/29 09:26:58;;;;;;;2.22;0.63;;;;;;;11.15;100.00;100673.78;5277465;28;20049;-82
2023/12/29 09:29:30;;;;;;;2.83;0.68;;;;;;;11.17;100.00;100676.25;5276750;28;20040;-81
2023/12/29 09:32:02;;;;;;;3.00;0.93;;;;;;;11.19;100.00;100672.53;5278618;28;20028;-82
2023/12/29 09:34:35;;;;;;;2.55;0.65;;;;;;;11.12;100.00;100678.47;5275922;28;20036;-81
2023/12/29 09:37:06;;;;;;;2.83;0.90;;;;;;;11.17;100.00;100686.75;5275604;28;20028;-82
2023/12/29 09:39:39;;;;;;;4.25;1.20;;;;;;;11.15;100.00;100688.69;5275839;28;20054;-83
2023/12/29 09:42:21;;;;;;;2.33;0.60;;;;;;;11.21;100.00;100688.13;5266452;28;20040;-82
2023/12/29 09:44:53;;;;;;;2.40;0.70;;;;;;;11.18;100.00;100673.53;5277858;28;20489;-82
2023/12/29 09:47:26;;;;;;;2.85;0.73;;;;;;;11.23;100.00;100673.09;5278590;28;20033;-82
2023/12/29 09:49:58;;;;;;;2.72;0.80;;;;;;;11.29;100.00;100674.31;5280861;28;20028;-82
2023/12/29 09:52:30;;;;;;;1.88;0.60;;;;;;;11.38;100.00;100679.56;5280544;28;20036;-82
2023/12/29 09:55:03;;;;;;;2.47;0.63;;;;;;;11.35;100.00;100677.22;5277002;28;20113;-82
2023/12/29 09:57:36;;;;;;;2.58;0.55;;;;;;;11.40;100.00;100672.41;5279884;28;20126;-82
2023/12/29 10:00:11;;;;;;;2.53;0.60;;;;;;;11.52;100.00;100685.38;5280289;28;20043;-81
2023/12/29 10:02:44;;;;;;;2.70;0.80;;;;;;;11.44;100.00;100676.41;5277361;28;20031;-82
2023/12/29 10:05:15;;;;;;;1.98;0.60;;;;;;;11.43;100.00;100677.34;5276002;28;20390;-81
2023/12/29 10:07:50;;;;;;;1.52;0.70;;;;;;;11.52;100.00;100674.88;5276944;28;20036;-81
2023/12/29 10:10:24;;;;;;;2.25;0.50;;;;;;;11.49;100.00;100673.34;5278263;28;20032;-81
2023/12/29 10:12:59;;;;;;;2.00;0.70;;;;;;;11.61;100.00;100687.16;5281260;28;20398;-81
2023/12/29 10:15:42;;;;;;;1.70;0.70;;;;;;;11.70;100.00;100683.66;5284665;28;20036;-81
2023/12/29 10:18:37;;;;;;;1.45;0.60;;;;;;;11.77;100.00;100676.06;5283009;28;20401;-81
2023/12/29 10:21:31;;;;;;;1.92;0.70;;;;;;;11.85;100.00;100686.69;5284096;28;20040;-81
2023/12/29 10:24:09;;;;;;;2.80;0.75;;;;;;;11.63;100.00;100678.19;5286536;28;20465;-81
2023/12/29 10:26:43;;;;;;;2.42;0.95;;;;;;;11.60;100.00;100683.69;5282563;28;20394;-81
2023/12/29 10:29:15;;;;;;;2.30;0.70;;;;;;;11.57;100.00;100689.22;5279844;28;20036;-81
2023/12/29 10:31:47;;;;;;;1.73;0.60;;;;;;;11.67;100.00;100703.16;5285079;28;20047;-82
2023/12/29 10:34:28;;;;;;;7.45;1.10;;;;;;;11.69;100.00;100697.75;5292473;28;20306;-82
2023/12/29 10:37:09;;;;;;;2.72;0.77;;;;;;;11.68;100.00;100689.06;5288979;28;20028;-84
2023/12/29 10:39:55;;;;;;;3.88;0.90;;;;;;;11.87;100.00;100701.34;5286344;28;20437;-84
2023/12/29 10:42:28;;;;;;;3.40;0.80;;;;;;;11.76;100.00;100714.59;5285210;28;20043;-85
2023/12/29 10:45:09;;;;;;;3.10;1.10;;;;;;;11.89;100.00;100709.94;5276172;28;20051;-84
2023/12/29 10:47:45;;;;;;;3.72;1.08;;;;;;;11.92;100.00;100716.66;5283488;28;20036;-85
2023/12/29 10:50:16;;;;;;;3.03;0.95;;;;;;;11.80;100.00;100715.16;5284122;28;20044;-83
2023/12/29 10:52:48;;;;;;;3.92;1.00;;;;;;;11.95;100.00;100729.53;5285953;28;20043;-83
2023/12/29 10:55:23;;;;;;;2.08;0.85;;;;;;;11.98;100.00;100721.38;5281413;28;20070;-82
2023/12/29 10:58:00;;;;;;;4.22;1.00;;;;;;;12.05;100.00;100711.13;5282741;28;20113;-86
2023/12/29 11:00:35;;;;;;;3.67;1.20;;;;;;;12.00;100.00;100705.47;5273886;28;20983;-84
2023/12/29 11:03:07;;;;;;;5.93;1.20;;;;;;;12.04;100.00;100717.31;5273637;28;20046;-83
2023/12/29 11:05:39;;;;;;;6.45;1.70;;;;;;;12.07;100.00;100706.53;5281447;28;20036;-86
2023/12/29 11:08:19;;;;;;;3.65;1.25;;;;;;;12.17;100.00;100689.78;5279370;28;20355;-83
2023/12/29 11:10:51;;;;;;;2.95;1.02;;;;;;;12.15;100.00;100711.91;5279518;28;20462;-82
2023/12/29 11:13:24;;;;;;;5.55;1.33;;;;;;;12.17;100.00;100715.22;5281255;28;20036;-85
2023/12/29 11:15:57;;;;;;;4.90;1.30;;;;;;;12.21;100.00;100710.53;5266382;28;20055;-86
2023/12/29 11:18:30;;;;;;;6.65;1.23;;;;;;;12.20;100.00;100696.56;5260751;28;20564;-85
2023/12/29 11:21:02;;;;;;;6.65;1.38;;;;;;;12.17;100.00;100709.97;5273937;28;20027;-83
2023/12/29 11:23:34;;;;;;;6.30;1.30;;;;;;;12.18;100.00;100719.50;5278235;28;20039;-83
2023/12/29 11:26:07;;;;;;;5.45;1.42;;;;;;;12.09;100.00;100702.81;5279333;28;20040;-83
2023/12/29 11:28:39;;;;;;;5.22;1.48;;;;;;;12.10;100.00;100709.72;5276799;28;20028;-85
2023/12/29 11:31:11;;;;;;;4.97;1.50;;;;;;;12.03;100.00;100718.31;5276320;28;20036;-83
2023/12/29 11:33:58;;;;;;;8.77;1.80;;;;;;;12.11;100.00;100706.13;5277581;28;20040;-83
2023/12/29 11:36:34;;;;;;;5.32;1.30;;;;;;;12.08;100.00;100729.19;5263130;28;20056;-84
2023/12/29 11:39:30;;;;;;;5.43;1.40;;;;;;;12.06;100.00;100708.34;5280514;28;20024;-82
2023/12/29 11:42:17;;;;;;;7.82;1.95;;;;;;;11.98;100.00;100724.00;5289845;28;20075;-83